sensor_id;sensor_type;location;lat;lon;timestamp;P1;durP1;ratioP1;P2;durP2;ratioP2
64052;SDS011;50299;49.524;8.536;2023-05-07T00:01:21;3.83;;;2.80;;
64052;SDS011;50299;49.524;8.536;2023-05-07T00:03:48;4.38;;;3.38;;
64052;SDS011;50299;49.524;8.536;2023-05-07T00:06:14;4.43;;;3.25;;
64052;SDS011;50299;49.524;8.536;2023-05-07T00:08:41;4.93;;;3.28;;
64052;SDS011;50299;49.524;8.536;2023-05-07T00:11:07;3.63;;;3.28;;
64052;SDS011;50299;49.524;8.536;2023-05-07T00:13:34;4.90;;;3.22;;
64052;SDS011;50299;49.524;8.536;2023-05-07T00:16:02;3.83;;;3.53;;
64052;SDS011;50299;49.524;8.536;2023-05-07T00:18:29;4.03;;;3.35;;
64052;SDS011;50299;49.524;8.536;2023-05-07T00:20:56;4.88;;;3.28;;
64052;SDS011;50299;49.524;8.536;2023-05-07T00:23:22;4.95;;;3.50;;
64052;SDS011;50299;49.524;8.536;2023-05-07T00:25:49;3.58;;;3.28;;
64052;SDS011;50299;49.524;8.536;2023-05-07T00:28:16;4.38;;;3.13;;
64052;SDS011;50299;49.524;8.536;2023-05-07T00:30:42;3.78;;;3.42;;
64052;SDS011;50299;49.524;8.536;2023-05-07T00:33:08;4.38;;;2.70;;
64052;SDS011;50299;49.524;8.536;2023-05-07T00:35:35;3.47;;;3.17;;
64052;SDS011;50299;49.524;8.536;2023-05-07T00:38:01;3.38;;;3.08;;
64052;SDS011;50299;49.524;8.536;2023-05-07T00:40:28;4.57;;;3.40;;
64052;SDS011;50299;49.524;8.536;2023-05-07T00:42:54;6.38;;;3.95;;
64052;SDS011;50299;49.524;8.536;2023-05-07T00:45:22;4.47;;;3.33;;
64052;SDS011;50299;49.524;8.536;2023-05-07T00:47:53;3.70;;;3.40;;
64052;SDS011;50299;49.524;8.536;2023-05-07T00:50:24;4.05;;;3.53;;
64052;SDS011;50299;49.524;8.536;2023-05-07T00:52:52;4.15;;;3.50;;
64052;SDS011;50299;49.524;8.536;2023-05-07T00:55:19;4.05;;;3.35;;
64052;SDS011;50299;49.524;8.536;2023-05-07T00:57:46;3.88;;;3.50;;
64052;SDS011;50299;49.524;8.536;2023-05-07T01:00:12;4.75;;;3.50;;
64052;SDS011;50299;49.524;8.536;2023-05-07T01:02:41;4.03;;;3.63;;
64052;SDS011;50299;49.524;8.536;2023-05-07T01:05:09;3.97;;;3.67;;
64052;SDS011;50299;49.524;8.536;2023-05-07T01:07:39;3.90;;;3.60;;
64052;SDS011;50299;49.524;8.536;2023-05-07T01:10:07;4.25;;;3.85;;
64052;SDS011;50299;49.524;8.536;2023-05-07T01:12:36;5.65;;;3.72;;
64052;SDS011;50299;49.524;8.536;2023-05-07T01:15:04;4.78;;;3.72;;
64052;SDS011;50299;49.524;8.536;2023-05-07T01:17:33;3.95;;;3.60;;
64052;SDS011;50299;49.524;8.536;2023-05-07T01:22:33;5.45;;;3.83;;
64052;SDS011;50299;49.524;8.536;2023-05-07T01:25:03;4.10;;;3.47;;
64052;SDS011;50299;49.524;8.536;2023-05-07T01:27:30;4.25;;;3.83;;
64052;SDS011;50299;49.524;8.536;2023-05-07T01:29:57;4.50;;;4.10;;
64052;SDS011;50299;49.524;8.536;2023-05-07T01:32:28;5.00;;;3.78;;
64052;SDS011;50299;49.524;8.536;2023-05-07T01:34:58;5.53;;;3.67;;
64052;SDS011;50299;49.524;8.536;2023-05-07T01:37:26;6.38;;;4.25;;
64052;SDS011;50299;49.524;8.536;2023-05-07T01:39:52;5.03;;;3.90;;
64052;SDS011;50299;49.524;8.536;2023-05-07T01:42:20;4.43;;;3.88;;
64052;SDS011;50299;49.524;8.536;2023-05-07T01:44:47;4.00;;;3.70;;
64052;SDS011;50299;49.524;8.536;2023-05-07T01:47:14;3.65;;;3.38;;
64052;SDS011;50299;49.524;8.536;2023-05-07T01:49:41;3.50;;;3.25;;
64052;SDS011;50299;49.524;8.536;2023-05-07T01:52:09;3.90;;;3.60;;
64052;SDS011;50299;49.524;8.536;2023-05-07T01:54:36;4.15;;;3.13;;
64052;SDS011;50299;49.524;8.536;2023-05-07T01:57:03;3.53;;;3.22;;
64052;SDS011;50299;49.524;8.536;2023-05-07T01:59:29;3.40;;;3.10;;
64052;SDS011;50299;49.524;8.536;2023-05-07T02:01:56;3.47;;;3.20;;
64052;SDS011;50299;49.524;8.536;2023-05-07T02:04:22;4.57;;;3.38;;
64052;SDS011;50299;49.524;8.536;2023-05-07T02:06:49;6.38;;;3.83;;
64052;SDS011;50299;49.524;8.536;2023-05-07T02:09:15;3.35;;;3.15;;
64052;SDS011;50299;49.524;8.536;2023-05-07T02:11:44;3.05;;;2.78;;
64052;SDS011;50299;49.524;8.536;2023-05-07T02:14:10;4.05;;;3.75;;
64052;SDS011;50299;49.524;8.536;2023-05-07T02:16:37;3.28;;;2.97;;
64052;SDS011;50299;49.524;8.536;2023-05-07T02:19:03;3.50;;;3.20;;
64052;SDS011;50299;49.524;8.536;2023-05-07T02:21:30;4.70;;;3.58;;
64052;SDS011;50299;49.524;8.536;2023-05-07T02:23:56;4.95;;;3.40;;
64052;SDS011;50299;49.524;8.536;2023-05-07T02:26:23;3.78;;;3.30;;
64052;SDS011;50299;49.524;8.536;2023-05-07T02:28:49;3.63;;;3.42;;
64052;SDS011;50299;49.524;8.536;2023-05-07T02:31:16;3.95;;;3.50;;
64052;SDS011;50299;49.524;8.536;2023-05-07T02:33:42;4.00;;;3.40;;
64052;SDS011;50299;49.524;8.536;2023-05-07T02:36:09;3.70;;;3.42;;
64052;SDS011;50299;49.524;8.536;2023-05-07T02:38:37;4.00;;;3.55;;
64052;SDS011;50299;49.524;8.536;2023-05-07T02:41:04;4.25;;;3.65;;
64052;SDS011;50299;49.524;8.536;2023-05-07T02:43:30;3.45;;;3.10;;
64052;SDS011;50299;49.524;8.536;2023-05-07T02:46:15;5.20;;;3.65;;
64052;SDS011;50299;49.524;8.536;2023-05-07T02:48:42;5.22;;;3.40;;
64052;SDS011;50299;49.524;8.536;2023-05-07T02:51:09;3.28;;;2.97;;
64052;SDS011;50299;49.524;8.536;2023-05-07T02:53:35;3.30;;;3.08;;
64052;SDS011;50299;49.524;8.536;2023-05-07T02:56:02;4.63;;;4.22;;
64052;SDS011;50299;49.524;8.536;2023-05-07T02:58:28;3.95;;;3.65;;
64052;SDS011;50299;49.524;8.536;2023-05-07T03:00:55;3.25;;;3.05;;
64052;SDS011;50299;49.524;8.536;2023-05-07T03:03:22;3.85;;;3.55;;
64052;SDS011;50299;49.524;8.536;2023-05-07T03:05:49;3.78;;;3.47;;
64052;SDS011;50299;49.524;8.536;2023-05-07T03:08:15;4.95;;;3.95;;
64052;SDS011;50299;49.524;8.536;2023-05-07T03:10:41;3.35;;;3.15;;
64052;SDS011;50299;49.524;8.536;2023-05-07T03:13:08;4.03;;;3.67;;
64052;SDS011;50299;49.524;8.536;2023-05-07T03:15:34;4.32;;;3.80;;
64052;SDS011;50299;49.524;8.536;2023-05-07T03:18:01;4.13;;;3.65;;
64052;SDS011;50299;49.524;8.536;2023-05-07T03:20:27;4.45;;;3.83;;
64052;SDS011;50299;49.524;8.536;2023-05-07T03:22:54;4.50;;;3.47;;
64052;SDS011;50299;49.524;8.536;2023-05-07T03:25:20;4.30;;;3.85;;
64052;SDS011;50299;49.524;8.536;2023-05-07T03:27:47;3.72;;;3.42;;
64052;SDS011;50299;49.524;8.536;2023-05-07T03:30:13;4.55;;;3.35;;
64052;SDS011;50299;49.524;8.536;2023-05-07T03:32:40;7.80;;;4.30;;
64052;SDS011;50299;49.524;8.536;2023-05-07T03:35:06;3.83;;;3.53;;
64052;SDS011;50299;49.524;8.536;2023-05-07T03:37:33;4.28;;;3.90;;
64052;SDS011;50299;49.524;8.536;2023-05-07T03:40:00;4.93;;;4.20;;
64052;SDS011;50299;49.524;8.536;2023-05-07T03:42:26;4.40;;;4.00;;
64052;SDS011;50299;49.524;8.536;2023-05-07T03:44:53;4.22;;;3.60;;
64052;SDS011;50299;49.524;8.536;2023-05-07T03:47:19;3.92;;;3.58;;
64052;SDS011;50299;49.524;8.536;2023-05-07T03:49:45;4.00;;;3.70;;
64052;SDS011;50299;49.524;8.536;2023-05-07T03:52:12;3.40;;;3.20;;
64052;SDS011;50299;49.524;8.536;2023-05-07T03:54:38;3.92;;;3.63;;
64052;SDS011;50299;49.524;8.536;2023-05-07T03:57:05;3.22;;;3.03;;
64052;SDS011;50299;49.524;8.536;2023-05-07T03:59:31;4.80;;;4.10;;
64052;SDS011;50299;49.524;8.536;2023-05-07T04:01:58;3.97;;;3.22;;
64052;SDS011;50299;49.524;8.536;2023-05-07T04:04:24;3.67;;;3.38;;
64052;SDS011;50299;49.524;8.536;2023-05-07T04:06:51;4.93;;;3.55;;
64052;SDS011;50299;49.524;8.536;2023-05-07T04:09:17;3.30;;;3.10;;
64052;SDS011;50299;49.524;8.536;2023-05-07T04:11:44;4.82;;;3.55;;
64052;SDS011;50299;49.524;8.536;2023-05-07T04:14:10;4.38;;;3.50;;
64052;SDS011;50299;49.524;8.536;2023-05-07T04:16:36;4.05;;;3.53;;
64052;SDS011;50299;49.524;8.536;2023-05-07T04:19:03;3.70;;;3.38;;
64052;SDS011;50299;49.524;8.536;2023-05-07T04:21:29;3.63;;;3.30;;
64052;SDS011;50299;49.524;8.536;2023-05-07T04:23:56;3.20;;;2.95;;
64052;SDS011;50299;49.524;8.536;2023-05-07T04:26:22;4.22;;;3.35;;
64052;SDS011;50299;49.524;8.536;2023-05-07T04:28:50;5.05;;;3.83;;
64052;SDS011;50299;49.524;8.536;2023-05-07T04:31:16;4.28;;;3.88;;
64052;SDS011;50299;49.524;8.536;2023-05-07T04:33:43;3.35;;;3.05;;
64052;SDS011;50299;49.524;8.536;2023-05-07T04:36:10;3.80;;;3.47;;
64052;SDS011;50299;49.524;8.536;2023-05-07T04:38:36;3.63;;;3.33;;
64052;SDS011;50299;49.524;8.536;2023-05-07T04:41:04;4.47;;;3.42;;
64052;SDS011;50299;49.524;8.536;2023-05-07T04:43:31;3.58;;;3.35;;
64052;SDS011;50299;49.524;8.536;2023-05-07T04:45:58;3.47;;;3.17;;
64052;SDS011;50299;49.524;8.536;2023-05-07T04:48:24;3.75;;;3.45;;
64052;SDS011;50299;49.524;8.536;2023-05-07T04:50:52;4.75;;;3.63;;
64052;SDS011;50299;49.524;8.536;2023-05-07T04:53:19;3.72;;;3.42;;
64052;SDS011;50299;49.524;8.536;2023-05-07T04:55:46;3.70;;;3.40;;
64052;SDS011;50299;49.524;8.536;2023-05-07T04:58:12;5.55;;;3.78;;
64052;SDS011;50299;49.524;8.536;2023-05-07T05:00:39;4.38;;;4.00;;
64052;SDS011;50299;49.524;8.536;2023-05-07T05:03:08;4.47;;;3.85;;
64052;SDS011;50299;49.524;8.536;2023-05-07T05:05:35;4.88;;;3.47;;
64052;SDS011;50299;49.524;8.536;2023-05-07T05:08:01;4.00;;;3.55;;
64052;SDS011;50299;49.524;8.536;2023-05-07T05:10:28;3.88;;;3.67;;
64052;SDS011;50299;49.524;8.536;2023-05-07T05:12:54;3.58;;;3.28;;
64052;SDS011;50299;49.524;8.536;2023-05-07T05:15:21;3.67;;;3.38;;
64052;SDS011;50299;49.524;8.536;2023-05-07T05:17:48;5.32;;;3.83;;
64052;SDS011;50299;49.524;8.536;2023-05-07T05:20:14;4.43;;;3.58;;
64052;SDS011;50299;49.524;8.536;2023-05-07T05:22:41;3.88;;;3.35;;
64052;SDS011;50299;49.524;8.536;2023-05-07T05:25:08;3.85;;;3.55;;
64052;SDS011;50299;49.524;8.536;2023-05-07T05:27:34;4.50;;;3.63;;
64052;SDS011;50299;49.524;8.536;2023-05-07T05:30:02;6.05;;;3.72;;
64052;SDS011;50299;49.524;8.536;2023-05-07T05:32:29;4.90;;;3.53;;
64052;SDS011;50299;49.524;8.536;2023-05-07T05:34:56;4.90;;;3.63;;
64052;SDS011;50299;49.524;8.536;2023-05-07T05:37:22;4.55;;;3.60;;
64052;SDS011;50299;49.524;8.536;2023-05-07T05:39:49;4.10;;;3.67;;
64052;SDS011;50299;49.524;8.536;2023-05-07T05:42:15;4.75;;;3.85;;
64052;SDS011;50299;49.524;8.536;2023-05-07T05:44:42;4.25;;;3.85;;
64052;SDS011;50299;49.524;8.536;2023-05-07T05:47:08;4.10;;;3.70;;
64052;SDS011;50299;49.524;8.536;2023-05-07T05:49:35;7.20;;;4.35;;
64052;SDS011;50299;49.524;8.536;2023-05-07T05:52:01;4.35;;;3.95;;
64052;SDS011;50299;49.524;8.536;2023-05-07T05:54:28;5.05;;;3.88;;
64052;SDS011;50299;49.524;8.536;2023-05-07T05:56:54;5.05;;;4.60;;
64052;SDS011;50299;49.524;8.536;2023-05-07T05:59:20;3.63;;;3.33;;
64052;SDS011;50299;49.524;8.536;2023-05-07T06:01:47;4.57;;;4.15;;
64052;SDS011;50299;49.524;8.536;2023-05-07T06:04:14;4.45;;;3.72;;
64052;SDS011;50299;49.524;8.536;2023-05-07T06:06:40;5.43;;;3.78;;
64052;SDS011;50299;49.524;8.536;2023-05-07T06:09:07;3.58;;;3.28;;
64052;SDS011;50299;49.524;8.536;2023-05-07T06:11:33;3.97;;;3.53;;
64052;SDS011;50299;49.524;8.536;2023-05-07T06:13:59;4.13;;;3.72;;
64052;SDS011;50299;49.524;8.536;2023-05-07T06:16:26;4.53;;;3.47;;
64052;SDS011;50299;49.524;8.536;2023-05-07T06:18:52;4.00;;;3.63;;
64052;SDS011;50299;49.524;8.536;2023-05-07T06:21:19;3.78;;;3.47;;
64052;SDS011;50299;49.524;8.536;2023-05-07T06:23:45;3.35;;;3.05;;
64052;SDS011;50299;49.524;8.536;2023-05-07T06:26:11;4.32;;;3.28;;
64052;SDS011;50299;49.524;8.536;2023-05-07T06:28:38;3.05;;;2.85;;
64052;SDS011;50299;49.524;8.536;2023-05-07T06:31:11;5.35;;;3.10;;
64052;SDS011;50299;49.524;8.536;2023-05-07T06:33:42;3.30;;;3.00;;
64052;SDS011;50299;49.524;8.536;2023-05-07T06:36:10;2.92;;;2.72;;
64052;SDS011;50299;49.524;8.536;2023-05-07T06:38:36;3.28;;;3.08;;
64052;SDS011;50299;49.524;8.536;2023-05-07T06:41:03;3.05;;;2.75;;
64052;SDS011;50299;49.524;8.536;2023-05-07T06:43:29;5.68;;;3.00;;
64052;SDS011;50299;49.524;8.536;2023-05-07T06:45:55;2.97;;;2.67;;
64052;SDS011;50299;49.524;8.536;2023-05-07T06:48:22;3.33;;;2.63;;
64052;SDS011;50299;49.524;8.536;2023-05-07T06:50:48;3.50;;;2.63;;
64052;SDS011;50299;49.524;8.536;2023-05-07T06:53:15;2.50;;;2.30;;
64052;SDS011;50299;49.524;8.536;2023-05-07T06:55:42;2.78;;;2.05;;
64052;SDS011;50299;49.524;8.536;2023-05-07T06:58:08;2.53;;;2.33;;
64052;SDS011;50299;49.524;8.536;2023-05-07T07:00:34;3.20;;;2.80;;
64052;SDS011;50299;49.524;8.536;2023-05-07T07:03:01;2.42;;;2.22;;
64052;SDS011;50299;49.524;8.536;2023-05-07T07:05:27;2.88;;;2.67;;
64052;SDS011;50299;49.524;8.536;2023-05-07T07:07:54;3.55;;;2.10;;
64052;SDS011;50299;49.524;8.536;2023-05-07T07:10:20;2.47;;;1.92;;
64052;SDS011;50299;49.524;8.536;2023-05-07T07:12:47;2.10;;;2.00;;
64052;SDS011;50299;49.524;8.536;2023-05-07T07:15:17;2.55;;;2.35;;
64052;SDS011;50299;49.524;8.536;2023-05-07T07:17:43;2.28;;;2.13;;
64052;SDS011;50299;49.524;8.536;2023-05-07T07:20:10;3.10;;;2.13;;
64052;SDS011;50299;49.524;8.536;2023-05-07T07:22:37;2.70;;;2.13;;
64052;SDS011;50299;49.524;8.536;2023-05-07T07:25:04;2.30;;;2.10;;
64052;SDS011;50299;49.524;8.536;2023-05-07T07:27:30;3.78;;;2.05;;
64052;SDS011;50299;49.524;8.536;2023-05-07T07:29:57;2.42;;;2.22;;
64052;SDS011;50299;49.524;8.536;2023-05-07T07:32:24;2.38;;;2.17;;
64052;SDS011;50299;49.524;8.536;2023-05-07T07:34:51;4.07;;;2.40;;
64052;SDS011;50299;49.524;8.536;2023-05-07T07:37:18;2.38;;;2.00;;
64052;SDS011;50299;49.524;8.536;2023-05-07T07:39:44;2.67;;;2.28;;
64052;SDS011;50299;49.524;8.536;2023-05-07T07:42:11;2.30;;;2.20;;
64052;SDS011;50299;49.524;8.536;2023-05-07T07:44:37;3.20;;;2.38;;
64052;SDS011;50299;49.524;8.536;2023-05-07T07:47:05;2.65;;;2.33;;
64052;SDS011;50299;49.524;8.536;2023-05-07T07:49:32;2.10;;;2.00;;
64052;SDS011;50299;49.524;8.536;2023-05-07T07:51:58;2.22;;;1.92;;
64052;SDS011;50299;49.524;8.536;2023-05-07T07:54:25;3.60;;;2.38;;
64052;SDS011;50299;49.524;8.536;2023-05-07T07:56:51;2.80;;;2.15;;
64052;SDS011;50299;49.524;8.536;2023-05-07T07:59:18;2.30;;;2.10;;
64052;SDS011;50299;49.524;8.536;2023-05-07T08:01:45;3.55;;;2.17;;
64052;SDS011;50299;49.524;8.536;2023-05-07T08:04:11;1.90;;;1.80;;
64052;SDS011;50299;49.524;8.536;2023-05-07T08:06:38;2.88;;;1.95;;
64052;SDS011;50299;49.524;8.536;2023-05-07T08:09:05;3.38;;;2.40;;
64052;SDS011;50299;49.524;8.536;2023-05-07T08:11:31;3.72;;;2.50;;
64052;SDS011;50299;49.524;8.536;2023-05-07T08:13:58;2.83;;;2.28;;
64052;SDS011;50299;49.524;8.536;2023-05-07T08:16:24;2.60;;;2.40;;
64052;SDS011;50299;49.524;8.536;2023-05-07T08:18:51;3.38;;;2.17;;
64052;SDS011;50299;49.524;8.536;2023-05-07T08:21:17;3.28;;;2.20;;
64052;SDS011;50299;49.524;8.536;2023-05-07T08:23:44;2.33;;;2.20;;
64052;SDS011;50299;49.524;8.536;2023-05-07T08:26:10;4.35;;;2.28;;
64052;SDS011;50299;49.524;8.536;2023-05-07T08:28:37;2.58;;;2.20;;
64052;SDS011;50299;49.524;8.536;2023-05-07T08:31:03;3.50;;;2.25;;
64052;SDS011;50299;49.524;8.536;2023-05-07T08:33:30;2.28;;;2.10;;
64052;SDS011;50299;49.524;8.536;2023-05-07T08:35:57;5.25;;;2.38;;
64052;SDS011;50299;49.524;8.536;2023-05-07T08:38:23;2.58;;;1.90;;
64052;SDS011;50299;49.524;8.536;2023-05-07T08:40:49;2.42;;;2.17;;
64052;SDS011;50299;49.524;8.536;2023-05-07T08:43:16;2.53;;;2.35;;
64052;SDS011;50299;49.524;8.536;2023-05-07T08:45:44;2.45;;;2.25;;
64052;SDS011;50299;49.524;8.536;2023-05-07T08:48:15;4.10;;;2.35;;
64052;SDS011;50299;49.524;8.536;2023-05-07T08:50:43;2.58;;;2.38;;
64052;SDS011;50299;49.524;8.536;2023-05-07T08:53:09;2.60;;;2.40;;
64052;SDS011;50299;49.524;8.536;2023-05-07T08:55:36;3.85;;;2.35;;
64052;SDS011;50299;49.524;8.536;2023-05-07T08:58:03;2.83;;;2.63;;
64052;SDS011;50299;49.524;8.536;2023-05-07T09:00:29;4.13;;;2.78;;
64052;SDS011;50299;49.524;8.536;2023-05-07T09:02:56;3.90;;;2.55;;
64052;SDS011;50299;49.524;8.536;2023-05-07T09:05:23;2.70;;;2.45;;
64052;SDS011;50299;49.524;8.536;2023-05-07T09:07:49;2.33;;;2.03;;
64052;SDS011;50299;49.524;8.536;2023-05-07T09:10:20;3.28;;;2.53;;
64052;SDS011;50299;49.524;8.536;2023-05-07T09:12:47;2.45;;;2.25;;
64052;SDS011;50299;49.524;8.536;2023-05-07T09:15:14;2.72;;;2.35;;
64052;SDS011;50299;49.524;8.536;2023-05-07T09:17:40;2.63;;;2.00;;
64052;SDS011;50299;49.524;8.536;2023-05-07T09:20:08;2.55;;;2.20;;
64052;SDS011;50299;49.524;8.536;2023-05-07T09:22:36;3.05;;;1.95;;
64052;SDS011;50299;49.524;8.536;2023-05-07T09:25:04;2.88;;;2.50;;
64052;SDS011;50299;49.524;8.536;2023-05-07T09:27:35;2.00;;;1.75;;
64052;SDS011;50299;49.524;8.536;2023-05-07T09:30:08;2.40;;;2.20;;
64052;SDS011;50299;49.524;8.536;2023-05-07T09:32:35;3.03;;;2.38;;
64052;SDS011;50299;49.524;8.536;2023-05-07T09:35:04;2.83;;;2.10;;
64052;SDS011;50299;49.524;8.536;2023-05-07T09:37:31;2.70;;;2.13;;
64052;SDS011;50299;49.524;8.536;2023-05-07T09:39:58;2.03;;;1.90;;
64052;SDS011;50299;49.524;8.536;2023-05-07T09:42:24;2.03;;;1.90;;
64052;SDS011;50299;49.524;8.536;2023-05-07T09:44:54;2.13;;;1.85;;
64052;SDS011;50299;49.524;8.536;2023-05-07T09:47:23;2.42;;;2.00;;
64052;SDS011;50299;49.524;8.536;2023-05-07T09:49:51;3.20;;;2.00;;
64052;SDS011;50299;49.524;8.536;2023-05-07T09:52:22;1.90;;;1.80;;
64052;SDS011;50299;49.524;8.536;2023-05-07T09:54:50;2.58;;;1.95;;
64052;SDS011;50299;49.524;8.536;2023-05-07T09:57:17;1.85;;;1.75;;
64052;SDS011;50299;49.524;8.536;2023-05-07T09:59:45;2.17;;;2.05;;
64052;SDS011;50299;49.524;8.536;2023-05-07T10:02:13;1.90;;;1.80;;
64052;SDS011;50299;49.524;8.536;2023-05-07T10:04:40;2.90;;;1.98;;
64052;SDS011;50299;49.524;8.536;2023-05-07T10:07:07;2.08;;;1.88;;
64052;SDS011;50299;49.524;8.536;2023-05-07T10:09:35;1.98;;;1.83;;
64052;SDS011;50299;49.524;8.536;2023-05-07T10:12:05;1.67;;;1.58;;
64052;SDS011;50299;49.524;8.536;2023-05-07T10:14:32;2.05;;;1.95;;
64052;SDS011;50299;49.524;8.536;2023-05-07T10:16:59;2.53;;;1.70;;
64052;SDS011;50299;49.524;8.536;2023-05-07T10:19:27;1.63;;;1.50;;
64052;SDS011;50299;49.524;8.536;2023-05-07T10:21:56;1.75;;;1.65;;
64052;SDS011;50299;49.524;8.536;2023-05-07T10:24:34;2.05;;;1.83;;
64052;SDS011;50299;49.524;8.536;2023-05-07T10:27:10;2.05;;;1.85;;
64052;SDS011;50299;49.524;8.536;2023-05-07T10:32:48;2.13;;;1.92;;
64052;SDS011;50299;49.524;8.536;2023-05-07T10:35:17;1.98;;;1.77;;
64052;SDS011;50299;49.524;8.536;2023-05-07T10:37:47;2.30;;;1.60;;
64052;SDS011;50299;49.524;8.536;2023-05-07T10:40:14;3.50;;;1.83;;
64052;SDS011;50299;49.524;8.536;2023-05-07T10:42:57;2.25;;;2.05;;
64052;SDS011;50299;49.524;8.536;2023-05-07T10:45:25;3.08;;;2.17;;
64052;SDS011;50299;49.524;8.536;2023-05-07T10:48:12;2.55;;;1.90;;
64052;SDS011;50299;49.524;8.536;2023-05-07T10:51:17;1.60;;;1.50;;
64052;SDS011;50299;49.524;8.536;2023-05-07T10:53:46;3.40;;;1.90;;
64052;SDS011;50299;49.524;8.536;2023-05-07T10:58:45;2.83;;;2.00;;
64052;SDS011;50299;49.524;8.536;2023-05-07T11:01:11;2.05;;;1.70;;
64052;SDS011;50299;49.524;8.536;2023-05-07T11:06:39;2.13;;;1.75;;
64052;SDS011;50299;49.524;8.536;2023-05-07T11:09:06;1.75;;;1.65;;
64052;SDS011;50299;49.524;8.536;2023-05-07T11:11:49;1.90;;;1.80;;
64052;SDS011;50299;49.524;8.536;2023-05-07T11:17:09;2.55;;;2.20;;
64052;SDS011;50299;49.524;8.536;2023-05-07T11:19:49;2.13;;;1.90;;
64052;SDS011;50299;49.524;8.536;2023-05-07T11:24:59;1.90;;;1.80;;
64052;SDS011;50299;49.524;8.536;2023-05-07T11:27:26;1.90;;;1.80;;
64052;SDS011;50299;49.524;8.536;2023-05-07T11:29:53;5.55;;;1.98;;
64052;SDS011;50299;49.524;8.536;2023-05-07T11:32:23;2.38;;;1.63;;
64052;SDS011;50299;49.524;8.536;2023-05-07T11:34:57;2.25;;;1.98;;
64052;SDS011;50299;49.524;8.536;2023-05-07T11:37:25;2.30;;;1.98;;
64052;SDS011;50299;49.524;8.536;2023-05-07T11:40:03;2.65;;;2.05;;
64052;SDS011;50299;49.524;8.536;2023-05-07T11:42:35;3.25;;;1.90;;
64052;SDS011;50299;49.524;8.536;2023-05-07T11:45:09;1.73;;;1.63;;
64052;SDS011;50299;49.524;8.536;2023-05-07T11:47:36;2.05;;;1.70;;
64052;SDS011;50299;49.524;8.536;2023-05-07T11:50:06;1.88;;;1.73;;
64052;SDS011;50299;49.524;8.536;2023-05-07T11:52:34;1.98;;;1.88;;
64052;SDS011;50299;49.524;8.536;2023-05-07T11:55:02;2.15;;;1.90;;
64052;SDS011;50299;49.524;8.536;2023-05-07T11:57:32;2.08;;;1.90;;
64052;SDS011;50299;49.524;8.536;2023-05-07T12:00:00;2.65;;;2.08;;
64052;SDS011;50299;49.524;8.536;2023-05-07T12:02:31;2.00;;;1.70;;
64052;SDS011;50299;49.524;8.536;2023-05-07T12:04:59;2.33;;;2.15;;
64052;SDS011;50299;49.524;8.536;2023-05-07T12:07:26;3.13;;;1.85;;
64052;SDS011;50299;49.524;8.536;2023-05-07T12:09:53;1.80;;;1.70;;
64052;SDS011;50299;49.524;8.536;2023-05-07T12:12:19;1.85;;;1.52;;
64052;SDS011;50299;49.524;8.536;2023-05-07T12:14:46;4.47;;;1.63;;
64052;SDS011;50299;49.524;8.536;2023-05-07T12:17:13;2.40;;;1.60;;
64052;SDS011;50299;49.524;8.536;2023-05-07T12:19:41;2.88;;;1.70;;
64052;SDS011;50299;49.524;8.536;2023-05-07T12:22:11;1.58;;;1.48;;
64052;SDS011;50299;49.524;8.536;2023-05-07T12:24:45;3.35;;;1.70;;
64052;SDS011;50299;49.524;8.536;2023-05-07T12:29:43;3.08;;;2.00;;
64052;SDS011;50299;49.524;8.536;2023-05-07T12:32:16;1.60;;;1.50;;
64052;SDS011;50299;49.524;8.536;2023-05-07T12:34:44;3.50;;;1.65;;
64052;SDS011;50299;49.524;8.536;2023-05-07T12:37:11;1.58;;;1.48;;
64052;SDS011;50299;49.524;8.536;2023-05-07T12:39:47;1.58;;;1.48;;
64052;SDS011;50299;49.524;8.536;2023-05-07T12:42:15;1.67;;;1.58;;
64052;SDS011;50299;49.524;8.536;2023-05-07T12:44:44;2.28;;;1.50;;
64052;SDS011;50299;49.524;8.536;2023-05-07T12:47:12;1.50;;;1.38;;
64052;SDS011;50299;49.524;8.536;2023-05-07T12:49:39;1.83;;;1.40;;
64052;SDS011;50299;49.524;8.536;2023-05-07T12:52:06;1.63;;;1.52;;
64052;SDS011;50299;49.524;8.536;2023-05-07T12:54:34;1.83;;;1.30;;
64052;SDS011;50299;49.524;8.536;2023-05-07T12:57:05;1.63;;;1.52;;
64052;SDS011;50299;49.524;8.536;2023-05-07T12:59:34;3.10;;;1.40;;
64052;SDS011;50299;49.524;8.536;2023-05-07T13:02:02;1.40;;;1.20;;
64052;SDS011;50299;49.524;8.536;2023-05-07T13:04:29;1.45;;;1.33;;
64052;SDS011;50299;49.524;8.536;2023-05-07T13:06:55;2.03;;;1.38;;
64052;SDS011;50299;49.524;8.536;2023-05-07T13:09:22;1.70;;;1.60;;
64052;SDS011;50299;49.524;8.536;2023-05-07T13:11:48;2.03;;;1.60;;
64052;SDS011;50299;49.524;8.536;2023-05-07T13:14:15;2.58;;;1.38;;
64052;SDS011;50299;49.524;8.536;2023-05-07T13:16:41;1.60;;;1.50;;
64052;SDS011;50299;49.524;8.536;2023-05-07T13:19:08;5.20;;;1.63;;
64052;SDS011;50299;49.524;8.536;2023-05-07T13:21:34;1.50;;;1.40;;
64052;SDS011;50299;49.524;8.536;2023-05-07T13:24:01;2.13;;;1.48;;
64052;SDS011;50299;49.524;8.536;2023-05-07T13:26:27;1.70;;;1.50;;
64052;SDS011;50299;49.524;8.536;2023-05-07T13:28:53;2.13;;;1.50;;
64052;SDS011;50299;49.524;8.536;2023-05-07T13:31:20;1.52;;;1.42;;
64052;SDS011;50299;49.524;8.536;2023-05-07T13:33:47;2.05;;;1.70;;
64052;SDS011;50299;49.524;8.536;2023-05-07T13:36:14;1.60;;;1.50;;
64052;SDS011;50299;49.524;8.536;2023-05-07T13:38:41;1.95;;;1.38;;
64052;SDS011;50299;49.524;8.536;2023-05-07T13:41:07;1.83;;;1.70;;
64052;SDS011;50299;49.524;8.536;2023-05-07T13:43:34;1.90;;;1.77;;
64052;SDS011;50299;49.524;8.536;2023-05-07T13:46:00;1.60;;;1.50;;
64052;SDS011;50299;49.524;8.536;2023-05-07T13:48:27;2.25;;;2.00;;
64052;SDS011;50299;49.524;8.536;2023-05-07T13:50:54;2.33;;;1.83;;
64052;SDS011;50299;49.524;8.536;2023-05-07T13:53:21;2.25;;;1.65;;
64052;SDS011;50299;49.524;8.536;2023-05-07T13:55:47;2.55;;;1.60;;
64052;SDS011;50299;49.524;8.536;2023-05-07T13:58:14;1.58;;;1.30;;
64052;SDS011;50299;49.524;8.536;2023-05-07T14:00:40;1.85;;;1.70;;
64052;SDS011;50299;49.524;8.536;2023-05-07T14:03:07;2.53;;;1.50;;
64052;SDS011;50299;49.524;8.536;2023-05-07T14:05:33;1.70;;;1.60;;
64052;SDS011;50299;49.524;8.536;2023-05-07T14:08:01;2.35;;;2.15;;
64052;SDS011;50299;49.524;8.536;2023-05-07T14:10:27;1.85;;;1.75;;
64052;SDS011;50299;49.524;8.536;2023-05-07T14:12:53;2.88;;;2.30;;
64052;SDS011;50299;49.524;8.536;2023-05-07T14:15:20;7.50;;;3.17;;
64052;SDS011;50299;49.524;8.536;2023-05-07T14:17:47;5.45;;;3.35;;
64052;SDS011;50299;49.524;8.536;2023-05-07T14:20:13;8.25;;;4.63;;
64052;SDS011;50299;49.524;8.536;2023-05-07T14:22:40;18.88;;;5.90;;
64052;SDS011;50299;49.524;8.536;2023-05-07T14:25:07;15.68;;;6.43;;
64052;SDS011;50299;49.524;8.536;2023-05-07T14:27:35;37.10;;;8.27;;
64052;SDS011;50299;49.524;8.536;2023-05-07T14:30:02;47.90;;;9.13;;
64052;SDS011;50299;49.524;8.536;2023-05-07T14:32:28;58.35;;;9.75;;
64052;SDS011;50299;49.524;8.536;2023-05-07T14:34:55;16.55;;;8.18;;
64052;SDS011;50299;49.524;8.536;2023-05-07T14:37:23;18.20;;;7.20;;
64052;SDS011;50299;49.524;8.536;2023-05-07T14:39:50;12.23;;;6.50;;
64052;SDS011;50299;49.524;8.536;2023-05-07T14:42:16;9.98;;;2.45;;
64052;SDS011;50299;49.524;8.536;2023-05-07T14:44:44;3.50;;;2.75;;
64052;SDS011;50299;49.524;8.536;2023-05-07T14:47:12;11.98;;;4.93;;
64052;SDS011;50299;49.524;8.536;2023-05-07T14:49:41;10.25;;;6.20;;
64052;SDS011;50299;49.524;8.536;2023-05-07T14:52:08;8.48;;;5.13;;
64052;SDS011;50299;49.524;8.536;2023-05-07T14:54:36;8.35;;;5.45;;
64052;SDS011;50299;49.524;8.536;2023-05-07T14:57:05;10.07;;;6.05;;
64052;SDS011;50299;49.524;8.536;2023-05-07T14:59:32;8.15;;;5.57;;
64052;SDS011;50299;49.524;8.536;2023-05-07T15:01:58;7.22;;;5.38;;
64052;SDS011;50299;49.524;8.536;2023-05-07T15:04:25;9.35;;;7.57;;
64052;SDS011;50299;49.524;8.536;2023-05-07T15:06:51;10.25;;;8.20;;
64052;SDS011;50299;49.524;8.536;2023-05-07T15:09:19;9.50;;;7.82;;